BKPR/PRN METAR and TAF weather

Enter ICAO airport designator
Station Type Date Time Source
BKPR METAR 2018/12/12 16:30 UTC NOAA

BKPR 121630Z 29004KT 9999 SCT060 02/M09 Q1018 NOSIG RMK 17010095


Station Type Date Time Source
BKPR Decoded METAR 2018/12/12 16:30 UTC NOAA

Station name not available
Dec 12, 2018 - 11:30 AM EST / 2018.12.12 1630 UTC
Wind: from the WNW (290 degrees) at 5 MPH (4 KT):0
Visibility: greater than 7 mile(s):0
Sky conditions: partly cloudy
Temperature: 35 F (2 C)
Windchill: 30 F (-1 C):1
Dew Point: 15 F (-9 C)
Relative Humidity: 43%
Pressure (altimeter): 30.06 in. Hg (1018 hPa)
ob: BKPR 121630Z 29004KT 9999 SCT060 02/M09 Q1018 NOSIG RMK 17010095
cycle: 16

Station Type Date Time Source
BKPR TAF 2018/12/12 12:30 UTC NOAA

TAF BKPR 121130Z 1212/1312 VRB05KT 9999 SCT040
TEMPO 1302/1306 2000 BR PROB40 1304/1308 0400 FZFG BKN004


Example: see airport list